Time;durP1;ratioP1;P1;durP2;ratioP2;P2;SDS_P1;SDS_P2;PMS_P1;PMS_P2;Temp;Humidity;BMP_temperature;BMP_pressure;BME280_temperature;BME280_humidity;BME280_pressure;Samples;Min_cycle;Max_cycle;Signal;HPM_P1;HPM_P2
2021/01/08 00:00:51;;;;;;;;;;;;;;;8.88;43.94;100571.41;4862794;29;19928;-75
2021/01/08 00:03:18;;;;;;;;;;;;;;;8.77;44.62;100581.34;4876244;29;19944;-75
2021/01/08 00:05:45;;;;;;;;;;;;;;;8.72;44.78;100575.28;4876450;29;19928;-75
2021/01/08 00:08:12;;;;;;;;;;;;;;;8.63;45.20;100577.25;4874770;29;20060;-75
2021/01/08 00:10:39;;;;;;;;;;;;;;;8.60;46.30;100582.59;4887372;29;20441;-75
2021/01/08 00:13:06;;;;;;;;;;;;;;;8.60;46.57;100581.69;4881003;29;19927;-75
2021/01/08 00:15:33;;;;;;;;;;;;;;;8.56;46.56;100582.69;4880104;29;19932;-75
2021/01/08 00:18:00;;;;;;;;;;;;;;;8.52;46.78;100581.88;4894336;29;19936;-75
2021/01/08 00:20:27;;;;;;;;;;;;;;;8.52;46.94;100584.50;4878955;29;19932;-75
2021/01/08 00:22:56;;;;;;;;;;;;;;;8.51;47.49;100589.81;4894588;29;19934;-75
2021/01/08 00:25:23;;;;;;;;;;;;;;;8.49;47.64;100587.22;4894065;29;20035;-75
2021/01/08 00:27:50;;;;;;;;;;;;;;;8.44;48.13;100571.47;4884961;29;19931;-75
2021/01/08 00:30:19;;;;;;;;;;;;;;;8.42;47.56;100591.72;4896155;29;19932;-75
2021/01/08 00:32:47;;;;;;;;;;;;;;;8.42;48.22;100582.97;4882492;29;19931;-75
2021/01/08 00:35:14;;;;;;;;;;;;;;;8.39;48.37;100588.28;4884592;29;19932;-75
2021/01/08 00:37:41;;;;;;;;;;;;;;;8.35;48.55;100587.47;4882642;29;19967;-75
2021/01/08 00:40:08;;;;;;;;;;;;;;;8.34;48.81;100580.47;4880866;29;19939;-75
2021/01/08 00:42:36;;;;;;;;;;;;;;;8.33;48.83;100583.16;4883542;29;19939;-75
2021/01/08 00:45:04;;;;;;;;;;;;;;;8.29;48.99;100583.19;4881874;29;19928;-75
2021/01/08 00:47:31;;;;;;;;;;;;;;;8.29;48.67;100588.47;4884983;29;19928;-75
2021/01/08 00:49:59;;;;;;;;;;;;;;;8.30;48.98;100592.00;4893102;29;19935;-75
2021/01/08 00:52:27;;;;;;;;;;;;;;;8.26;49.25;100591.16;4882863;29;19932;-74
2021/01/08 00:54:55;;;;;;;;;;;;;;;8.25;49.65;100586.78;4878051;29;20390;-75
2021/01/08 00:57:30;;;;;;;;;;;;;;;8.24;49.32;100581.56;4884006;29;19928;-75
2021/01/08 00:59:58;;;;;;;;;;;;;;;8.21;49.22;100585.13;4893345;29;19940;-75
2021/01/08 01:02:25;;;;;;;;;;;;;;;8.19;49.51;100580.78;4886452;29;19928;-75
2021/01/08 01:04:53;;;;;;;;;;;;;;;8.17;49.74;100578.19;4881941;29;19960;-75
2021/01/08 01:07:21;;;;;;;;;;;;;;;8.15;49.55;100577.34;4883520;29;19932;-75
2021/01/08 01:09:48;;;;;;;;;;;;;;;8.15;50.00;100579.97;4886076;29;20430;-75
2021/01/08 01:12:15;;;;;;;;;;;;;;;8.12;49.80;100582.69;4862797;29;19936;-75
2021/01/08 01:14:42;;;;;;;;;;;;;;;8.08;50.07;100589.75;4865905;29;21288;-75
2021/01/08 01:17:08;;;;;;;;;;;;;;;8.08;50.08;100587.13;4850253;29;19959;-75
2021/01/08 01:19:35;;;;;;;;;;;;;;;8.04;50.06;100584.59;4864020;29;19953;-75
2021/01/08 01:22:03;;;;;;;;;;;;;;;8.04;50.40;100587.25;4862659;29;19953;-75
2021/01/08 01:24:30;;;;;;;;;;;;;;;8.03;50.26;100585.50;4876323;29;19992;-75
2021/01/08 01:26:58;;;;;;;;;;;;;;;8.02;50.20;100586.38;4866979;29;19932;-75
2021/01/08 01:29:25;;;;;;;;;;;;;;;7.98;50.58;100575.03;4865644;29;19940;-75
2021/01/08 01:31:52;;;;;;;;;;;;;;;7.96;50.44;100587.38;4865124;29;19928;-75
2021/01/08 01:34:20;;;;;;;;;;;;;;;7.94;50.61;100584.75;4858726;29;19932;-75
2021/01/08 01:36:46;;;;;;;;;;;;;;;7.91;50.86;100590.09;4844175;29;19932;-75
2021/01/08 01:39:13;;;;;;;;;;;;;;;7.92;50.80;100593.63;4862167;29;20653;-76
2021/01/08 01:41:41;;;;;;;;;;;;;;;7.90;50.58;100587.50;4875016;29;19957;-75
2021/01/08 01:44:08;;;;;;;;;;;;;;;7.90;50.70;100590.13;4864352;29;19928;-75
2021/01/08 01:46:36;;;;;;;;;;;;;;;7.91;50.97;100590.09;4863806;29;19932;-75
2021/01/08 01:49:03;;;;;;;;;;;;;;;7.93;50.82;100590.94;4871587;29;19933;-75
2021/01/08 01:51:30;;;;;;;;;;;;;;;7.96;50.80;100582.13;4842176;29;19967;-75
2021/01/08 01:53:57;;;;;;;;;;;;;;;7.99;50.68;100584.69;4866172;29;19932;-75
2021/01/08 01:56:24;;;;;;;;;;;;;;;8.05;50.57;100588.94;4866286;29;19928;-75
2021/01/08 01:58:51;;;;;;;;;;;;;;;8.06;50.83;100588.06;4867410;29;19928;-75
2021/01/08 02:01:18;;;;;;;;;;;;;;;8.12;50.58;100599.34;4862709;29;20177;-75
2021/01/08 02:03:47;;;;;;;;;;;;;;;8.12;50.62;100595.84;4844274;29;19936;-75
2021/01/08 02:06:17;;;;;;;;;;;;;;;8.16;50.58;100594.88;4855471;29;22727;-75
2021/01/08 02:08:45;;;;;;;;;;;;;;;8.19;50.45;100597.44;4863192;29;19936;-75
2021/01/08 02:11:15;;;;;;;;;;;;;;;8.23;50.49;100601.75;4895810;29;19927;-75
2021/01/08 02:13:42;;;;;;;;;;;;;;;8.26;50.76;100601.72;4885018;29;19959;-75
2021/01/08 02:16:12;;;;;;;;;;;;;;;8.28;50.63;100599.03;4879136;29;20395;-75
2021/01/08 02:18:40;;;;;;;;;;;;;;;8.30;50.37;100598.13;4878172;29;20010;-75
2021/01/08 02:21:09;;;;;;;;;;;;;;;8.29;51.04;100593.75;4875584;29;19983;-76
2021/01/08 02:23:41;;;;;;;;;;;;;;;8.33;50.77;100596.31;4880683;29;20003;-75
2021/01/08 02:26:09;;;;;;;;;;;;;;;8.34;50.49;100592.78;4898699;29;19939;-75
2021/01/08 02:28:36;;;;;;;;;;;;;;;8.29;50.44;100598.16;4882575;29;20390;-75
2021/01/08 02:31:03;;;;;;;;;;;;;;;8.31;50.83;100596.34;4896152;29;19995;-75
2021/01/08 02:33:31;;;;;;;;;;;;;;;8.30;51.07;100606.03;4879624;29;19931;-75
2021/01/08 02:36:00;;;;;;;;;;;;;;;8.31;50.53;100598.97;4892501;29;19942;-75
2021/01/08 02:38:27;;;;;;;;;;;;;;;8.29;50.87;100595.50;4879772;29;19928;-75
2021/01/08 02:40:55;;;;;;;;;;;;;;;8.29;50.89;100595.50;4883692;29;19932;-75
2021/01/08 02:43:23;;;;;;;;;;;;;;;8.30;50.80;100602.53;4880764;29;19935;-75
2021/01/08 02:45:50;;;;;;;;;;;;;;;8.29;51.06;100606.06;4877878;29;19932;-75
2021/01/08 02:48:18;;;;;;;;;;;;;;;8.26;50.99;100601.72;4880783;29;19932;-75
2021/01/08 02:50:45;;;;;;;;;;;;;;;8.27;50.67;100602.56;4882595;29;19932;-75
2021/01/08 02:53:13;;;;;;;;;;;;;;;8.27;51.10;100597.31;4884529;29;20453;-75
2021/01/08 02:55:46;;;;;;;;;;;;;;;8.27;50.64;100603.47;4883275;29;19932;-75
2021/01/08 02:58:13;;;;;;;;;;;;;;;8.25;51.22;100601.75;4896038;29;19959;-75
2021/01/08 03:00:41;;;;;;;;;;;;;;;8.23;51.44;100604.38;4877989;29;19932;-75
2021/01/08 03:03:08;;;;;;;;;;;;;;;8.22;50.84;100607.94;4879888;29;19957;-75
2021/01/08 03:05:35;;;;;;;;;;;;;;;8.23;51.27;100611.44;4882167;29;19952;-75
2021/01/08 03:08:03;;;;;;;;;;;;;;;8.21;51.31;100605.31;4880222;29;19928;-75
2021/01/08 03:10:29;;;;;;;;;;;;;;;8.19;51.16;100600.09;4880690;29;19943;-75
2021/01/08 03:12:58;;;;;;;;;;;;;;;8.18;51.40;100600.13;4879934;29;19953;-75
2021/01/08 03:15:24;;;;;;;;;;;;;;;8.16;51.54;100609.84;4879007;29;19936;-75
2021/01/08 03:17:52;;;;;;;;;;;;;;;8.17;51.00;100606.28;4879999;29;20023;-75
2021/01/08 03:20:19;;;;;;;;;;;;;;;8.14;51.19;100609.84;4864158;29;19968;-75
2021/01/08 03:22:46;;;;;;;;;;;;;;;8.12;51.54;100606.38;4882747;29;19928;-75
2021/01/08 03:25:13;;;;;;;;;;;;;;;8.10;51.83;100598.53;4883859;29;19983;-75
2021/01/08 03:27:40;;;;;;;;;;;;;;;8.10;51.40;100595.88;4885020;29;19928;-75
2021/01/08 03:30:08;;;;;;;;;;;;;;;8.09;51.64;100599.41;4874716;29;19940;-75
2021/01/08 03:32:35;;;;;;;;;;;;;;;8.07;51.70;100598.56;4871862;29;20318;-75
2021/01/08 03:35:04;;;;;;;;;;;;;;;8.04;52.02;100590.72;4878917;29;20347;-75
2021/01/08 03:37:31;;;;;;;;;;;;;;;8.03;51.74;100596.88;4880615;29;20793;-75
2021/01/08 03:39:58;;;;;;;;;;;;;;;8.03;51.66;100602.16;4883440;29;19946;-75
2021/01/08 03:42:25;;;;;;;;;;;;;;;8.03;51.96;100601.31;4885188;29;19928;-75
2021/01/08 03:44:52;;;;;;;;;;;;;;;8.03;51.55;100601.31;4863011;29;19932;-75
2021/01/08 03:47:19;;;;;;;;;;;;;;;8.02;51.45;100600.41;4863271;29;19928;-75
2021/01/08 03:49:46;;;;;;;;;;;;;;;8.18;51.60;100606.28;4879656;29;19939;-75
2021/01/08 03:52:14;;;;;;;;;;;;;;;8.25;51.29;100601.75;4883112;29;20014;-75
2021/01/08 03:54:40;;;;;;;;;;;;;;;8.31;51.29;100607.75;4867261;29;19927;-75
2021/01/08 03:57:08;;;;;;;;;;;;;;;8.37;50.87;100604.13;4882859;29;19978;-75
2021/01/08 03:59:35;;;;;;;;;;;;;;;8.53;50.04;100599.44;4880668;29;19931;-75
2021/01/08 04:02:05;;;;;;;;;;;;;;;8.64;48.34;100599.19;4885075;29;19974;-75
2021/01/08 04:04:32;;;;;;;;;;;;;;;8.71;47.32;100594.69;4884007;29;19971;-75
2021/01/08 04:06:59;;;;;;;;;;;;;;;8.85;45.95;100597.00;4878445;29;20794;-75
2021/01/08 04:09:27;;;;;;;;;;;;;;;8.90;45.86;100597.75;4871202;29;19935;-75
2021/01/08 04:11:54;;;;;;;;;;;;;;;9.03;44.65;100596.56;4881427;29;19936;-75
2021/01/08 04:14:21;;;;;;;;;;;;;;;9.01;44.31;100597.50;4895123;29;19927;-75
2021/01/08 04:16:48;;;;;;;;;;;;;;;9.10;43.78;100599.91;4883329;29;19932;-75
2021/01/08 04:19:15;;;;;;;;;;;;;;;9.13;43.33;100597.22;4882680;29;19931;-75
2021/01/08 04:21:45;;;;;;;;;;;;;;;9.06;43.37;100604.44;4897095;29;20030;-75
2021/01/08 04:24:12;;;;;;;;;;;;;;;8.94;43.43;100605.56;4887088;29;19963;-75
2021/01/08 04:26:40;;;;;;;;;;;;;;;8.87;44.81;100603.09;4885179;29;19985;-75
2021/01/08 04:29:07;;;;;;;;;;;;;;;8.79;45.26;100611.19;4877327;29;19931;-75
2021/01/08 04:31:34;;;;;;;;;;;;;;;8.75;45.73;100614.81;4899116;29;19931;-76
2021/01/08 04:34:02;;;;;;;;;;;;;;;8.72;46.15;100607.81;4887305;29;19932;-76
2021/01/08 04:36:29;;;;;;;;;;;;;;;8.70;46.42;100604.34;4877885;29;19928;-75
2021/01/08 04:38:56;;;;;;;;;;;;;;;8.69;46.43;100610.50;4884160;29;19983;-75
2021/01/08 04:41:23;;;;;;;;;;;;;;;8.64;47.13;100608.00;4882159;29;19984;-75
2021/01/08 04:43:50;;;;;;;;;;;;;;;8.65;47.57;100608.84;4879440;29;19963;-75
2021/01/08 04:46:19;;;;;;;;;;;;;;;8.62;47.37;100604.50;4894059;29;19942;-75
2021/01/08 04:48:49;;;;;;;;;;;;;;;8.60;47.74;100606.31;4887848;29;20023;-75
2021/01/08 04:51:16;;;;;;;;;;;;;;;8.60;47.99;100611.59;4895144;29;20449;-75
2021/01/08 04:53:43;;;;;;;;;;;;;;;8.57;47.92;100616.06;4882550;29;19952;-75
2021/01/08 04:56:12;;;;;;;;;;;;;;;8.57;48.58;100616.06;4892022;29;19932;-75
2021/01/08 04:58:39;;;;;;;;;;;;;;;8.55;48.57;100615.22;4892306;29;19944;-74
2021/01/08 05:01:07;;;;;;;;;;;;;;;8.54;48.83;100614.34;4881675;29;19952;-74
2021/01/08 05:03:35;;;;;;;;;;;;;;;8.53;48.28;100617.03;4887159;29;19957;-74
2021/01/08 05:06:01;;;;;;;;;;;;;;;8.51;48.56;100613.53;4884709;29;19928;-75
2021/01/08 05:08:28;;;;;;;;;;;;;;;8.49;48.64;100610.94;4896647;29;19936;-75
2021/01/08 05:10:55;;;;;;;;;;;;;;;8.49;49.00;100620.63;4874866;29;19943;-75
2021/01/08 05:13:32;;;;;;;;;;;;;;;8.46;48.86;100622.41;4890080;29;19928;-75
2021/01/08 05:16:01;;;;;;;;;;;;;;;8.44;49.36;100624.19;4880365;29;19928;-75
2021/01/08 05:18:31;;;;;;;;;;;;;;;8.42;49.39;100626.00;4880648;29;19938;-75
2021/01/08 05:20:58;;;;;;;;;;;;;;;8.42;49.77;100625.13;4890258;29;20207;-74
2021/01/08 05:23:27;;;;;;;;;;;;;;;8.43;50.01;100632.13;4882772;29;19931;-75
2021/01/08 05:25:54;;;;;;;;;;;;;;;8.38;49.31;100628.69;4892693;29;19939;-75
2021/01/08 05:28:21;;;;;;;;;;;;;;;8.38;49.52;100631.34;4884360;29;19934;-75
2021/01/08 05:30:48;;;;;;;;;;;;;;;8.35;50.13;100631.41;4884564;29;19996;-75
2021/01/08 05:33:16;;;;;;;;;;;;;;;8.34;50.07;100629.66;4883675;29;20018;-75
2021/01/08 05:35:44;;;;;;;;;;;;;;;8.33;50.22;100635.88;4885723;29;20850;-75
2021/01/08 05:38:11;;;;;;;;;;;;;;;8.30;50.10;100632.38;4876972;29;19932;-75
2021/01/08 05:40:38;;;;;;;;;;;;;;;8.31;50.45;100633.22;4881342;29;19962;-75
2021/01/08 05:43:07;;;;;;;;;;;;;;;8.29;50.27;100635.06;4890498;29;19928;-75
2021/01/08 05:45:34;;;;;;;;;;;;;;;8.29;50.58;100633.28;4892020;29;19932;-75
2021/01/08 05:48:03;;;;;;;;;;;;;;;8.30;49.93;100635.00;4890462;29;20171;-75
2021/01/08 05:50:31;;;;;;;;;;;;;;;8.32;50.12;100637.63;4881830;29;19936;-75
2021/01/08 05:53:03;;;;;;;;;;;;;;;8.35;50.39;100637.53;4881162;29;19932;-75
2021/01/08 05:55:34;;;;;;;;;;;;;;;8.37;49.93;100634.91;4889566;29;19991;-75
2021/01/08 05:58:02;;;;;;;;;;;;;;;8.40;50.04;100638.31;4895092;29;19928;-76
2021/01/08 06:00:29;;;;;;;;;;;;;;;8.46;50.18;100635.59;4881449;29;20672;-75
2021/01/08 06:02:56;;;;;;;;;;;;;;;8.48;50.17;100646.09;4881057;29;20374;-75
2021/01/08 06:05:24;;;;;;;;;;;;;;;8.45;50.16;100639.13;4877846;29;20684;-75
2021/01/08 06:07:57;;;;;;;;;;;;;;;8.50;50.38;100646.06;4874171;29;19935;-75
2021/01/08 06:10:25;;;;;;;;;;;;;;;8.54;50.28;100645.13;4879764;29;19955;-75
2021/01/08 06:12:52;;;;;;;;;;;;;;;8.57;50.21;100651.19;4865460;29;19932;-75
2021/01/08 06:15:19;;;;;;;;;;;;;;;8.60;50.30;100652.91;4883119;29;19995;-75
2021/01/08 06:17:46;;;;;;;;;;;;;;;8.58;50.24;100647.66;4880170;29;20326;-75
2021/01/08 06:20:14;;;;;;;;;;;;;;;8.59;50.73;100648.56;4879733;29;20004;-75
2021/01/08 06:22:41;;;;;;;;;;;;;;;8.58;50.73;100650.31;4863532;29;21712;-75
2021/01/08 06:25:09;;;;;;;;;;;;;;;8.61;50.36;100654.63;4878876;29;20006;-75
2021/01/08 06:27:43;;;;;;;;;;;;;;;8.62;50.50;100654.59;4881688;29;19931;-75
2021/01/08 06:30:13;;;;;;;;;;;;;;;8.61;50.23;100655.50;4878095;29;19928;-75
2021/01/08 06:32:47;;;;;;;;;;;;;;;8.62;50.32;100659.03;4872875;29;19959;-75
2021/01/08 06:35:16;;;;;;;;;;;;;;;8.62;50.48;100661.66;4875506;29;19931;-75
2021/01/08 06:37:43;;;;;;;;;;;;;;;8.60;50.60;100669.59;4861907;29;19928;-75
2021/01/08 06:40:11;;;;;;;;;;;;;;;8.60;50.67;100671.34;4881356;29;19974;-75
2021/01/08 06:42:45;;;;;;;;;;;;;;;8.59;50.54;100674.91;4884325;29;19959;-75
2021/01/08 06:45:13;;;;;;;;;;;;;;;8.57;50.72;100672.28;4864852;29;19995;-74
2021/01/08 06:47:44;;;;;;;;;;;;;;;8.56;50.56;100678.50;4879168;29;19932;-75
2021/01/08 06:50:17;;;;;;;;;;;;;;;8.56;50.56;100681.13;4876054;29;19931;-75
2021/01/08 06:52:45;;;;;;;;;;;;;;;8.55;50.62;100689.94;4875859;29;19932;-75
2021/01/08 06:55:16;;;;;;;;;;;;;;;8.56;50.80;100694.31;4881330;29;19994;-75
2021/01/08 06:57:54;;;;;;;;;;;;;;;8.53;51.00;100691.72;4876113;29;19999;-75
2021/01/08 07:00:22;;;;;;;;;;;;;;;8.51;50.94;100698.78;4865420;29;19999;-75
2021/01/08 07:02:54;;;;;;;;;;;;;;;8.50;51.15;100696.16;4883688;29;19935;-76
2021/01/08 07:05:21;;;;;;;;;;;;;;;8.47;50.86;100700.63;4861847;29;20015;-75
2021/01/08 07:07:49;;;;;;;;;;;;;;;8.47;51.04;100700.63;4874739;29;19964;-80
2021/01/08 07:10:17;;;;;;;;;;;;;;;8.45;50.71;100696.25;4873755;29;19935;-76
2021/01/08 07:58:13;;;;;;;;;;;;;;;8.54;51.42;100759.38;4860231;29;19958;-78
2021/01/08 08:00:47;;;;;;;;;;;;;;;8.59;50.65;100754.88;4845082;29;19937;-77
2021/01/08 08:03:15;;;;;;;;;;;;;;;8.65;50.85;100761.81;4851020;29;19936;-78
2021/01/08 08:08:51;;;;;;;;;;;;;;;8.80;50.71;100773.84;5197215;24;19932;-77
2021/01/08 08:11:25;;;;;;;;;;;;;;;8.92;50.40;100767.44;4882603;29;19927;-82
2021/01/08 08:21:16;;;;;;;;;;;;;;;9.53;45.02;100782.88;4819642;29;19968;-77
2021/01/08 08:23:51;;;;;;;;;;;;;;;9.58;44.81;100776.56;4857873;29;20336;-85
2021/01/08 08:30:11;;;;;;;;;;;;;;;9.72;43.04;100773.63;4876225;29;19931;-83
2021/01/08 08:33:45;;;;;;;;;;;;;;;9.72;42.63;100796.53;4846201;29;19936;-82
2021/01/08 08:36:20;;;;;;;;;;;;;;;9.61;43.09;100797.66;4842674;29;20015;-83
2021/01/08 08:39:00;;;;;;;;;;;;;;;9.54;43.97;100792.53;4844659;29;19932;-83
2021/01/08 08:41:28;;;;;;;;;;;;;;;9.53;44.19;100791.66;4842911;29;19932;-81
2021/01/08 08:44:23;;;;;;;;;;;;;;;9.54;44.99;100792.53;4841679;29;19928;-86
2021/01/08 08:47:03;;;;;;;;;;;;;;;9.54;44.91;100792.53;4835926;29;19932;-83
2021/01/08 08:53:59;;;;;;;;;;;;;;;9.57;45.52;100806.56;4785164;29;19940;-80
2021/01/08 08:56:27;;;;;;;;;;;;;;;9.59;45.94;100803.88;4791543;29;19982;-82
2021/01/08 08:58:56;;;;;;;;;;;;;;;9.59;45.76;100806.50;4788060;29;19933;-80
2021/01/08 09:01:39;;;;;;;;;;;;;;;9.56;46.14;100809.19;4788437;29;19985;-81
2021/01/08 09:08:05;;;;;;;;;;;;;;;9.56;46.84;100814.47;4775152;29;19934;-85
2021/01/08 09:11:04;;;;;;;;;;;;;;;9.53;46.93;100817.19;4818370;29;20545;-81
2021/01/08 09:20:01;;;;;;;;;;;;;;;9.53;47.39;100818.06;4242106;27;19931;-81
2021/01/08 09:22:39;;;;;;;;;;;;;;;9.56;49.19;100819.75;4883263;29;19931;-79
2021/01/08 10:07:03;;;;;;;;;;;;;;;10.59;49.83;100821.75;4667871;30;20446;-80
2021/01/08 10:21:51;;;;;;;;;;;;;;;10.60;49.68;100826.16;4635293;30;19940;-79
2021/01/08 10:25:14;;;;;;;;;;;;;;;10.57;49.38;100815.63;4636385;30;20284;-77
2021/01/08 10:27:55;;;;;;;;;;;;;;;10.54;49.47;100823.66;4699061;30;20123;-80
2021/01/08 10:44:37;;;;;;;;;;;;;;;10.40;49.51;100834.56;5297196;23;19932;-77
2021/01/08 10:47:17;;;;;;;;;;;;;;;10.37;49.95;100832.88;4845607;29;19963;-78
2021/01/08 10:50:19;;;;;;;;;;;;;;;10.35;49.80;100829.41;4843262;29;19947;-79
2021/01/08 10:52:47;;;;;;;;;;;;;;;10.30;49.65;100833.91;4864075;29;19929;-79
2021/01/08 10:55:24;;;;;;;;;;;;;;;10.27;50.33;100836.66;4857019;29;19942;-79
2021/01/08 10:57:51;;;;;;;;;;;;;;;10.19;50.66;100842.13;4841979;29;19932;-79
2021/01/08 11:00:19;;;;;;;;;;;;;;;10.14;50.21;100838.72;4856850;29;19928;-81
2021/01/08 11:02:54;;;;;;;;;;;;;;;10.23;48.76;100841.13;4857469;29;20016;-79
2021/01/08 11:05:25;;;;;;;;;;;;;;;10.25;47.86;100841.09;4855886;29;19988;-85
2021/01/08 11:07:53;;;;;;;;;;;;;;;10.14;48.75;100847.50;4859372;29;19932;-80
2021/01/08 11:10:22;;;;;;;;;;;;;;;10.23;50.73;100845.53;4841554;29;19932;-80
2021/01/08 11:12:53;;;;;;;;;;;;;;;10.22;51.24;100849.97;4862533;29;19939;-80
2021/01/08 11:15:20;;;;;;;;;;;;;;;10.24;50.18;100856.09;4857655;29;19932;-81
2021/01/08 11:17:47;;;;;;;;;;;;;;;10.32;49.00;100849.72;4844043;29;20388;-79
2021/01/08 11:20:16;;;;;;;;;;;;;;;10.37;47.34;100851.38;4860952;29;19932;-79
2021/01/08 11:22:50;;;;;;;;;;;;;;;10.38;46.47;100857.56;4853968;29;19928;-80
2021/01/08 11:25:18;;;;;;;;;;;;;;;10.42;45.62;100857.41;4840015;29;19940;-78
2021/01/08 11:27:46;;;;;;;;;;;;;;;10.44;45.05;100858.28;4853545;29;22458;-80
2021/01/08 11:30:14;;;;;;;;;;;;;;;10.50;44.25;100854.59;4861861;29;20033;-79
2021/01/08 11:32:41;;;;;;;;;;;;;;;10.54;43.93;100855.38;4848781;29;19967;-80
2021/01/08 11:35:09;;;;;;;;;;;;;;;10.57;43.36;100858.84;4864339;29;19980;-82
2021/01/08 11:37:39;;;;;;;;;;;;;;;10.59;43.37;100854.34;4857189;29;19928;-80
2021/01/08 11:40:07;;;;;;;;;;;;;;;10.53;43.74;100856.28;4860123;29;19928;-80
2021/01/08 11:42:33;;;;;;;;;;;;;;;10.49;44.04;100844.91;4859821;29;20003;-78
2021/01/08 11:45:01;;;;;;;;;;;;;;;10.46;44.12;100845.84;4865242;29;20911;-79
2021/01/08 11:47:28;;;;;;;;;;;;;;;10.46;44.15;100845.00;4864967;29;19928;-77
2021/01/08 11:49:55;;;;;;;;;;;;;;;10.52;44.44;100846.59;4854836;29;19932;-79
2021/01/08 11:56:08;;;;;;;;;;;;;;;10.65;44.91;100847.16;4856828;29;19950;-85
2021/01/08 12:08:45;;;;;;;;;;;;;;;10.86;45.47;100843.09;4842567;29;19979;-78
2021/01/08 12:11:15;;;;;;;;;;;;;;;10.84;45.50;100839.63;4849322;29;19932;-79
2021/01/08 12:13:43;;;;;;;;;;;;;;;10.79;45.76;100837.97;4846990;29;19932;-80
2021/01/08 12:16:10;;;;;;;;;;;;;;;10.75;45.94;100846.03;4852216;29;19928;-80
2021/01/08 12:18:37;;;;;;;;;;;;;;;10.73;46.33;100842.53;4849298;29;19939;-81
2021/01/08 12:21:05;;;;;;;;;;;;;;;10.75;46.04;100843.38;4845155;29;19928;-80
2021/01/08 12:23:32;;;;;;;;;;;;;;;10.74;46.08;100841.63;4846399;29;20000;-80
2021/01/08 12:25:59;;;;;;;;;;;;;;;10.66;46.47;100835.69;4851538;29;19938;-74
2021/01/08 12:28:27;;;;;;;;;;;;;;;11.25;59.76;100834.94;4850632;29;19936;-81
2021/01/08 12:30:54;;;;;;;;;;;;;;;12.23;61.38;100835.53;4851005;29;19972;-81
2021/01/08 12:33:22;;;;;;;;;;;;;;;12.81;59.29;100837.97;4847297;29;19937;-83
2021/01/08 12:36:32;;;;;;;;;;;;;;;;;;;;;
2021/01/08 12:39:11;;;;;;;;;;;;;;;12.19;56.83;100829.44;4808550;29;20027;-78
2021/01/08 12:41:46;;;;;;;;;;;;;;;11.93;55.02;100840.88;4837649;29;19986;-80
2021/01/08 12:44:29;;;;;;;;;;;;;;;11.88;53.07;100840.13;4835258;29;19968;-80
2021/01/08 12:47:01;;;;;;;;;;;;;;;11.82;51.66;100833.25;4830190;29;19937;-81
2021/01/08 12:49:41;;;;;;;;;;;;;;;11.77;50.48;100836.03;4832628;29;19935;-80
2021/01/08 12:53:02;;;;;;;;;;;;;;;11.79;48.65;100834.22;4825293;29;19944;-81
2021/01/08 12:55:29;;;;;;;;;;;;;;;11.75;47.50;100829.03;4834965;29;20400;-79
2021/01/08 12:57:56;;;;;;;;;;;;;;;11.65;47.39;100836.41;4834207;29;19932;-80
2021/01/08 13:00:24;;;;;;;;;;;;;;;11.56;46.97;100836.72;4835341;29;20427;-80
2021/01/08 13:02:50;;;;;;;;;;;;;;;11.49;46.25;100843.97;4832996;29;20343;-79
2021/01/08 13:05:21;;;;;;;;;;;;;;;11.33;46.72;100848.81;4827590;29;20429;-79
2021/01/08 13:07:48;;;;;;;;;;;;;;;11.07;47.95;100846.91;4837662;29;20365;-79
2021/01/08 13:10:15;;;;;;;;;;;;;;;10.90;48.85;100850.03;4836290;29;19944;-79
2021/01/08 13:12:41;;;;;;;;;;;;;;;10.84;49.48;100851.06;4834943;29;19956;-79
2021/01/08 13:15:09;;;;;;;;;;;;;;;10.92;48.07;100850.88;4837319;29;20003;-78
2021/01/08 13:17:38;;;;;;;;;;;;;;;10.99;46.91;100856.84;4829127;29;20150;-81
2021/01/08 13:20:06;;;;;;;;;;;;;;;11.03;46.32;100846.16;4828406;29;20315;-83
2021/01/08 13:22:33;;;;;;;;;;;;;;;11.07;45.30;100845.16;4832061;29;19975;-83
2021/01/08 13:25:02;;;;;;;;;;;;;;;11.10;44.36;100850.34;4835741;29;19970;-84
2021/01/08 13:27:31;;;;;;;;;;;;;;;11.12;44.07;100840.59;4832404;29;19968;-83
2021/01/08 13:30:01;;;;;;;;;;;;;;;11.13;44.03;100852.06;4834986;29;19949;-82
2021/01/08 13:32:28;;;;;;;;;;;;;;;11.02;44.33;100844.41;4829791;29;19932;-83
2021/01/08 13:34:56;;;;;;;;;;;;;;;10.94;44.97;100849.06;4826325;29;19932;-80
2021/01/08 13:37:23;;;;;;;;;;;;;;;10.91;45.12;100846.47;4835100;29;20018;-80
2021/01/08 13:39:50;;;;;;;;;;;;;;;10.85;45.55;100851.94;4835420;29;20346;-81
2021/01/08 13:42:17;;;;;;;;;;;;;;;10.79;45.92;100850.31;4836859;29;19940;-79
2021/01/08 13:44:43;;;;;;;;;;;;;;;10.69;46.54;100856.75;4833938;29;19933;-80
2021/01/08 13:47:10;;;;;;;;;;;;;;;10.61;46.76;100855.19;4828629;29;19932;-80
2021/01/08 13:49:37;;;;;;;;;;;;;;;10.52;46.92;100863.38;4828410;29;20005;-81
2021/01/08 13:52:08;;;;;;;;;;;;;;;10.48;47.83;100858.19;4830252;29;20753;-82
2021/01/08 13:54:35;;;;;;;;;;;;;;;10.39;47.54;100852.22;4835303;29;19965;-81
2021/01/08 13:57:02;;;;;;;;;;;;;;;10.32;48.05;100862.94;4836890;29;19956;-80
2021/01/08 13:59:29;;;;;;;;;;;;;;;10.25;48.34;100859.59;4833837;29;19936;-80
2021/01/08 14:01:57;;;;;;;;;;;;;;;10.19;48.50;100863.25;4826723;29;19932;-81
2021/01/08 14:04:27;;;;;;;;;;;;;;;10.13;48.73;100869.53;4829807;29;19932;-80
2021/01/08 14:06:55;;;;;;;;;;;;;;;10.09;49.22;100872.31;4836140;29;20357;-81
2021/01/08 14:09:23;;;;;;;;;;;;;;;10.05;49.55;100873.28;4834560;29;20362;-80
2021/01/08 14:11:51;;;;;;;;;;;;;;;9.97;49.45;100874.31;4839274;29;20331;-79
2021/01/08 14:14:18;;;;;;;;;;;;;;;9.93;49.67;100871.81;4835234;29;19936;-81
2021/01/08 14:16:45;;;;;;;;;;;;;;;9.89;50.29;100884.22;4828788;29;20168;-81
2021/01/08 14:19:13;;;;;;;;;;;;;;;9.86;50.00;100880.75;4832211;29;20307;-80
2021/01/08 14:21:40;;;;;;;;;;;;;;;9.83;50.49;100879.03;4831986;29;19937;-84
2021/01/08 14:24:08;;;;;;;;;;;;;;;9.79;50.58;100883.53;4834051;29;19942;-81
2021/01/08 14:26:36;;;;;;;;;;;;;;;9.73;50.54;100888.06;4831687;29;19928;-81
2021/01/08 14:29:04;;;;;;;;;;;;;;;9.68;50.76;100896.13;4826792;29;19944;-81
2021/01/08 14:31:32;;;;;;;;;;;;;;;9.64;51.10;100900.59;4823497;29;21087;-82
2021/01/08 14:34:01;;;;;;;;;;;;;;;9.59;51.17;100897.16;4832911;29;19932;-82
2021/01/08 14:36:30;;;;;;;;;;;;;;;9.55;50.74;100905.19;4835130;29;19936;-81
2021/01/08 14:38:58;;;;;;;;;;;;;;;9.50;51.11;100896.50;4836621;29;20301;-79
2021/01/08 14:41:25;;;;;;;;;;;;;;;9.47;51.37;100900.06;4837949;29;19929;-80
2021/01/08 14:43:55;;;;;;;;;;;;;;;9.44;51.97;100910.69;4831777;29;19928;-80
2021/01/08 14:46:23;;;;;;;;;;;;;;;9.38;51.34;100910.81;4828824;29;19937;-81
2021/01/08 14:48:50;;;;;;;;;;;;;;;9.35;51.80;100910.88;4828666;29;19939;-80
2021/01/08 14:51:27;;;;;;;;;;;;;;;9.30;52.19;100914.47;4828807;29;19936;-79
2021/01/08 14:53:54;;;;;;;;;;;;;;;9.26;52.30;100917.22;4834202;29;20023;-79
2021/01/08 14:56:22;;;;;;;;;;;;;;;9.22;52.14;100926.06;4835933;29;19933;-81
2021/01/08 14:58:49;;;;;;;;;;;;;;;9.19;52.25;100923.50;4831647;29;19965;-80
2021/01/08 15:01:18;;;;;;;;;;;;;;;9.18;51.91;100927.03;4829686;29;19932;-79
2021/01/08 15:03:45;;;;;;;;;;;;;;;9.14;52.45;100928.88;4834801;29;19932;-79
2021/01/08 15:06:14;;;;;;;;;;;;;;;9.10;52.80;100927.16;4835404;29;19962;-79
2021/01/08 15:08:41;;;;;;;;;;;;;;;9.05;52.77;100937.81;4835584;29;19967;-81
2021/01/08 15:11:08;;;;;;;;;;;;;;;9.02;52.43;100934.34;4841164;29;19932;-80
2021/01/08 15:13:35;;;;;;;;;;;;;;;8.97;52.47;100937.97;4830904;29;19940;-80
2021/01/08 15:16:02;;;;;;;;;;;;;;;8.95;52.61;100945.00;4837505;29;19936;-82
2021/01/08 15:18:30;;;;;;;;;;;;;;;8.95;52.93;100949.44;4833685;29;19929;-79
2021/01/08 15:20:58;;;;;;;;;;;;;;;8.89;52.77;100947.78;4830809;29;19929;-81
2021/01/08 15:23:26;;;;;;;;;;;;;;;8.90;53.28;100954.78;4835272;29;19936;-80
2021/01/08 15:25:53;;;;;;;;;;;;;;;8.87;53.39;100952.19;4833939;29;19935;-79
2021/01/08 15:28:20;;;;;;;;;;;;;;;8.85;52.82;100950.47;4826743;29;19937;-79
2021/01/08 15:30:48;;;;;;;;;;;;;;;8.82;53.32;100954.03;4830411;29;20060;-80
2021/01/08 15:33:15;;;;;;;;;;;;;;;8.82;52.97;100954.03;4833743;29;19932;-81